Time;durP1;ratioP1;P1;durP2;ratioP2;P2;SDS_P1;SDS_P2;PMS_P1;PMS_P2;Temp;Humidity;BMP_temperature;BMP_pressure;BME280_temperature;BME280_humidity;BME280_pressure;Samples;Min_cycle;Max_cycle;Signal;HPM_P1;HPM_P2
2022/12/26 00:02:12;;;;;;;23.95;12.35;;;;;;;4.91;73.13;100390.34;5111323;28;20034;-71
2022/12/26 00:04:37;;;;;;;18.13;9.15;;;;;;;4.95;72.78;100408.09;5111172;28;20054;-71
2022/12/26 00:07:03;;;;;;;18.15;8.82;;;;;;;4.96;72.04;100420.03;5113065;28;20058;-70
2022/12/26 00:09:28;;;;;;;15.80;8.57;;;;;;;4.95;72.30;100412.78;5112913;27;20398;-71
2022/12/26 00:11:54;;;;;;;22.10;9.30;;;;;;;5.03;72.47;100426.13;5112999;28;20031;-71
2022/12/26 00:14:19;;;;;;;13.55;8.57;;;;;;;5.18;72.19;100426.16;5112291;28;20043;-71
2022/12/26 00:16:45;;;;;;;15.70;8.27;;;;;;;5.45;71.70;100435.34;5110703;28;20493;-71
2022/12/26 00:19:11;;;;;;;18.23;9.82;;;;;;;5.58;71.67;100434.78;5112272;28;20469;-71
2022/12/26 00:21:37;;;;;;;14.10;9.05;;;;;;;5.13;71.36;100441.94;5112830;28;20494;-71
2022/12/26 00:24:03;;;;;;;16.42;8.70;;;;;;;4.77;71.54;100429.69;5111825;28;20042;-72
2022/12/26 00:26:32;;;;;;;17.13;8.45;;;;;;;4.61;72.57;100430.72;5112172;28;20038;-71
2022/12/26 00:28:58;;;;;;;18.15;9.07;;;;;;;4.53;72.58;100432.09;5112036;28;20546;-71
2022/12/26 00:31:27;;;;;;;17.60;8.85;;;;;;;4.66;72.57;100432.69;5106620;28;20122;-71
2022/12/26 00:33:53;;;;;;;13.57;9.10;;;;;;;4.73;72.48;100445.19;5111366;28;20050;-71
2022/12/26 00:36:26;;;;;;;16.10;9.60;;;;;;;4.35;73.42;100439.78;5112987;28;20035;-71
2022/12/26 00:38:52;;;;;;;15.18;8.85;;;;;;;4.31;74.53;100444.16;5113105;28;20055;-71
2022/12/26 00:41:19;;;;;;;16.08;9.45;;;;;;;4.75;73.81;100447.69;5112486;28;20065;-71
2022/12/26 00:43:45;;;;;;;15.25;8.20;;;;;;;4.66;73.08;100438.22;5112354;28;20038;-71
2022/12/26 00:46:11;;;;;;;19.13;8.70;;;;;;;4.90;72.02;100438.59;5110469;28;20055;-71
2022/12/26 00:48:37;;;;;;;13.93;9.13;;;;;;;4.91;72.95;100441.06;5110909;28;20032;-71
2022/12/26 00:51:03;;;;;;;17.80;9.57;;;;;;;4.71;71.86;100441.03;5110778;28;20019;-71
2022/12/26 00:53:29;;;;;;;17.70;10.02;;;;;;;4.18;73.91;100431.66;5111692;28;20031;-71
2022/12/26 00:55:55;;;;;;;18.27;10.07;;;;;;;4.13;75.46;100428.03;5112061;28;20142;-71
2022/12/26 00:58:20;;;;;;;22.08;10.70;;;;;;;4.34;73.77;100420.66;5110806;28;20507;-71
2022/12/26 01:00:47;;;;;;;23.85;12.00;;;;;;;4.07;74.42;100432.69;5111721;28;20570;-71
2022/12/26 01:03:13;;;;;;;32.67;14.38;;;;;;;3.88;75.04;100426.78;5110861;28;20024;-71
2022/12/26 01:05:43;;;;;;;20.20;11.38;;;;;;;3.87;74.81;100433.41;5110186;28;20375;-71
2022/12/26 01:08:09;;;;;;;19.98;12.65;;;;;;;3.74;75.72;100429.16;5111470;28;20114;-71
2022/12/26 01:10:35;;;;;;;41.22;20.48;;;;;;;3.57;76.49;100430.16;5111252;28;20027;-72
2022/12/26 01:13:00;;;;;;;38.78;20.15;;;;;;;3.89;76.25;100425.66;5112372;28;20020;-71
2022/12/26 01:15:26;;;;;;;46.30;21.92;;;;;;;4.13;75.16;100428.84;5111438;28;20489;-71
2022/12/26 01:17:51;;;;;;;48.65;23.52;;;;;;;3.94;75.05;100422.91;5112413;28;20040;-71
2022/12/26 01:20:17;;;;;;;43.15;22.10;;;;;;;4.06;74.93;100442.09;5111211;28;20113;-71
2022/12/26 01:22:42;;;;;;;20.40;13.30;;;;;;;3.79;75.89;100445.78;5112197;28;20051;-71
2022/12/26 01:25:10;;;;;;;23.95;11.75;;;;;;;3.67;76.57;100450.69;5112218;28;20020;-71
2022/12/26 01:27:35;;;;;;;21.10;13.52;;;;;;;3.59;76.58;100454.75;5104278;28;20066;-71
2022/12/26 01:30:01;;;;;;;23.02;12.75;;;;;;;3.74;76.90;100457.69;5102429;28;20532;-72
2022/12/26 01:32:26;;;;;;;20.98;11.70;;;;;;;3.99;77.62;100452.56;5111473;28;20076;-71
2022/12/26 01:34:54;;;;;;;16.60;10.68;;;;;;;4.10;77.43;100472.84;5109951;28;20064;-71
2022/12/26 01:37:21;;;;;;;17.38;11.15;;;;;;;4.18;75.94;100472.34;5110339;28;20123;-72
2022/12/26 01:39:47;;;;;;;22.73;11.10;;;;;;;4.17;76.08;100476.22;5110228;28;20020;-72
2022/12/26 01:42:15;;;;;;;18.13;11.20;;;;;;;3.88;76.34;100476.59;5112517;28;20032;-71
2022/12/26 01:45:02;;;;;;;19.58;9.95;;;;;;;3.81;75.39;100481.50;5110362;28;20413;-71
2022/12/26 01:47:42;;;;;;;17.95;10.18;;;;;;;3.64;77.00;100479.72;5110083;28;20027;-71
2022/12/26 01:50:22;;;;;;;22.75;11.40;;;;;;;3.74;76.99;100490.88;5111356;28;20048;-71
2022/12/26 01:52:48;;;;;;;17.30;10.10;;;;;;;3.81;78.10;100487.91;5110000;28;20062;-71
2022/12/26 01:55:16;;;;;;;18.83;10.27;;;;;;;3.41;76.83;100492.81;5111031;28;20040;-71
2022/12/26 01:57:46;;;;;;;15.35;9.57;;;;;;;3.28;77.71;100505.09;5109622;28;20115;-71
2022/12/26 02:00:13;;;;;;;20.33;10.70;;;;;;;3.32;78.87;100500.75;5111216;28;20019;-71
2022/12/26 02:05:34;;;;;;;22.77;13.45;;;;;;;3.43;79.99;100501.66;5079311;28;20028;-71
2022/12/26 02:08:17;;;;;;;20.92;12.73;;;;;;;3.55;79.79;100495.94;5106925;28;20984;-71
2022/12/26 02:10:49;;;;;;;19.88;11.23;;;;;;;3.45;79.68;100491.16;5110212;28;20026;-71
2022/12/26 02:13:17;;;;;;;20.48;11.25;;;;;;;3.49;77.93;100472.94;5111246;28;20024;-72
2022/12/26 02:15:43;;;;;;;18.00;9.95;;;;;;;3.69;77.26;100487.25;5109449;28;20114;-71
2022/12/26 02:18:08;;;;;;;26.33;14.00;;;;;;;3.78;77.44;100485.63;5113990;28;20025;-71
2022/12/26 02:20:48;;;;;;;22.33;11.27;;;;;;;3.53;76.54;100477.97;5114650;28;20076;-71
2022/12/26 02:23:43;;;;;;;15.82;9.70;;;;;;;3.13;79.07;100483.66;5115475;28;20040;-71
2022/12/26 02:26:34;;;;;;;19.73;10.18;;;;;;;3.32;80.32;100488.84;5114784;28;20032;-71
2022/12/26 02:29:14;;;;;;;15.32;9.38;;;;;;;2.85;83.58;100488.34;5099832;28;20391;-72
2022/12/26 02:32:15;;;;;;;19.58;8.70;;;;;;;3.19;83.45;100484.53;5111271;28;20023;-71
2022/12/26 02:34:56;;;;;;;13.57;8.15;;;;;;;3.45;82.28;100493.13;5081203;28;20484;-73
2022/12/26 02:37:49;;;;;;;18.13;9.40;;;;;;;3.43;80.66;100487.84;5113091;28;20020;-71
2022/12/26 02:40:35;;;;;;;22.55;10.68;;;;;;;3.61;80.41;100483.00;5114026;28;20020;-72
2022/12/26 02:43:13;;;;;;;22.63;10.68;;;;;;;3.69;79.32;100482.53;5110037;28;20030;-71
2022/12/26 02:49:04;;;;;;;24.65;12.77;;;;;;;3.30;77.73;100489.09;5115229;28;20118;-71
2022/12/26 03:13:11;;;;;;;30.38;15.75;;;;;;;3.36;79.08;100465.94;5115160;28;20089;-71
2022/12/26 03:18:38;;;;;;;23.58;13.82;;;;;;;3.28;79.68;100460.03;5115086;28;20053;-71
2022/12/26 03:21:05;;;;;;;24.77;13.95;;;;;;;3.30;80.52;100458.66;5112142;28;20042;-71
2022/12/26 03:23:33;;;;;;;26.95;14.65;;;;;;;3.24;79.94;100448.66;5114764;28;20024;-71
2022/12/26 03:28:48;;;;;;;;;;;;;;;3.17;80.82;100476.53;5113578;28;20112;-73
2022/12/26 03:31:15;;;;;;;29.02;16.15;;;;;;;3.15;79.63;100470.44;5114531;28;20390;-71
2022/12/26 03:37:00;;;;;;;19.23;11.43;;;;;;;2.89;81.17;100469.31;5113108;28;20042;-72
2022/12/26 04:21:03;;;;;;;9.68;7.22;;;;;;;2.32;83.55;100505.34;5111830;28;20039;-71
2022/12/26 04:46:27;;;;;;;13.93;8.82;;;;;;;1.66;86.93;100520.63;5111475;28;20034;-72
2022/12/26 04:51:38;;;;;;;11.85;6.93;;;;;;;1.76;84.95;100527.41;5111672;28;20034;-72
2022/12/26 04:54:04;;;;;;;14.07;7.38;;;;;;;1.41;86.51;100532.03;5112210;28;20486;-71
2022/12/26 04:56:29;;;;;;;20.85;8.98;;;;;;;1.45;87.78;100538.72;5112486;27;20047;-71
2022/12/26 04:58:55;;;;;;;14.40;8.13;;;;;;;1.81;87.36;100532.97;5111387;28;20446;-72
2022/12/26 05:09:33;;;;;;;16.33;8.27;;;;;;;1.39;85.14;100539.72;5112874;28;20041;-71
2022/12/26 05:12:03;;;;;;;24.45;14.93;;;;;;;0.98;87.88;100537.84;5112433;28;20482;-71
2022/12/26 05:14:30;;;;;;;20.58;13.35;;;;;;;1.12;88.71;100532.03;5112625;28;20069;-72
2022/12/26 05:30:55;;;;;;;23.85;13.27;;;;;;;1.29;86.14;100543.13;5110522;28;20088;-71
2022/12/26 05:36:08;;;;;;;43.05;14.05;;;;;;;1.40;85.27;100563.44;5111560;28;20141;-72
2022/12/26 05:38:35;;;;;;;30.15;15.07;;;;;;;1.41;84.08;100554.06;5110435;28;20027;-71
2022/12/26 05:41:01;;;;;;;25.63;13.90;;;;;;;1.32;83.72;100556.41;5106689;27;20049;-72
2022/12/26 05:43:27;;;;;;;30.45;17.50;;;;;;;1.15;85.24;100552.75;5108345;28;20562;-72
2022/12/26 05:45:52;;;;;;;84.20;44.95;;;;;;;1.47;85.19;100558.63;5110278;28;20413;-72
2022/12/26 05:48:18;;;;;;;66.97;35.92;;;;;;;1.46;85.28;100556.09;5100483;28;20051;-72
2022/12/26 05:50:43;;;;;;;61.28;35.90;;;;;;;1.58;86.35;100559.63;5098361;28;20498;-72
2022/12/26 05:53:09;;;;;;;66.10;33.50;;;;;;;1.55;84.84;100557.38;5111279;28;20065;-72
2022/12/26 05:55:34;;;;;;;73.40;37.88;;;;;;;1.57;85.02;100551.59;5104631;28;20032;-72
2022/12/26 05:58:00;;;;;;;81.45;43.75;;;;;;;1.82;84.65;100563.09;5108376;28;20068;-71
2022/12/26 06:00:26;;;;;;;109.07;55.97;;;;;;;1.63;84.38;100558.88;5094221;28;20066;-71
2022/12/26 06:02:52;;;;;;;228.20;132.32;;;;;;;1.75;85.37;100569.84;5110141;28;20111;-71
2022/12/26 06:05:17;;;;;;;130.65;75.88;;;;;;;1.81;84.13;100566.09;5102424;28;20099;-71
2022/12/26 06:07:43;;;;;;;94.57;53.90;;;;;;;1.77;84.27;100565.75;5108163;28;20036;-71
2022/12/26 06:10:09;;;;;;;122.38;66.32;;;;;;;1.73;84.47;100561.81;5108475;28;20839;-73
2022/12/26 06:12:35;;;;;;;134.48;78.75;;;;;;;1.92;85.26;100561.56;5101757;28;20019;-71
2022/12/26 06:15:00;;;;;;;74.50;38.20;;;;;;;2.03;84.42;100563.41;5108283;28;20390;-71
2022/12/26 06:17:26;;;;;;;74.93;41.60;;;;;;;2.05;84.23;100569.53;5108479;28;20096;-71
2022/12/26 06:19:52;;;;;;;57.33;31.83;;;;;;;1.69;83.28;100563.44;5107336;28;20077;-73
2022/12/26 06:22:17;;;;;;;97.20;49.63;;;;;;;1.76;84.31;100577.88;5110601;28;20023;-72
2022/12/26 06:24:43;;;;;;;150.45;78.63;;;;;;;2.00;83.93;100579.66;5108203;28;20020;-74
2022/12/26 06:27:08;;;;;;;162.63;88.72;;;;;;;2.09;85.34;100578.13;5107759;28;20032;-68
2022/12/26 06:29:33;;;;;;;159.98;90.43;;;;;;;2.26;84.86;100583.66;5103043;28;20031;-69
2022/12/26 06:31:59;;;;;;;239.27;136.98;;;;;;;2.29;84.29;100583.13;5108953;28;20034;-70
2022/12/26 06:34:26;;;;;;;135.70;76.63;;;;;;;2.38;83.41;100591.88;5110576;28;20103;-70
2022/12/26 06:36:52;;;;;;;61.45;34.13;;;;;;;2.23;83.29;100589.69;5108358;28;20023;-70
2022/12/26 06:39:17;;;;;;;53.53;31.75;;;;;;;2.38;83.66;100597.38;5106168;28;20019;-71
2022/12/26 06:41:43;;;;;;;67.68;37.83;;;;;;;2.51;83.58;100585.13;5110301;28;20500;-76
2022/12/26 06:44:11;;;;;;;49.00;28.95;;;;;;;2.15;83.09;100581.81;5107525;28;20058;-69
2022/12/26 06:46:40;;;;;;;88.43;44.28;;;;;;;1.95;85.30;100580.41;5103278;28;20023;-70
2022/12/26 06:49:06;;;;;;;152.43;74.57;;;;;;;1.82;86.31;100589.84;5107109;28;20034;-67
2022/12/26 06:51:31;;;;;;;115.15;57.10;;;;;;;2.43;85.89;100589.16;5107871;28;20020;-65
2022/12/26 06:54:01;;;;;;;67.85;40.25;;;;;;;2.74;84.62;100595.16;5108828;28;20015;-71
2022/12/26 06:56:27;;;;;;;97.22;49.58;;;;;;;3.12;83.08;100589.00;5109425;28;20031;-68
2022/12/26 06:58:59;;;;;;;76.07;38.25;;;;;;;3.33;81.94;100596.44;5111885;28;20102;-67
2022/12/26 07:01:26;;;;;;;59.22;33.92;;;;;;;3.15;80.63;100596.75;5111957;28;20077;-66
2022/12/26 07:03:53;;;;;;;74.05;43.13;;;;;;;3.23;81.61;100607.38;5115185;28;20050;-68
2022/12/26 07:06:30;;;;;;;101.68;60.58;;;;;;;3.69;80.97;100606.22;5114498;28;20463;-65
2022/12/26 07:09:01;;;;;;;94.45;58.13;;;;;;;3.89;79.89;100605.59;5115276;28;20112;-66
2022/12/26 07:11:31;;;;;;;182.07;91.20;;;;;;;3.86;78.76;100606.94;5113014;28;20027;-66
2022/12/26 07:13:57;;;;;;;58.95;32.47;;;;;;;3.31;81.36;100617.16;5114050;28;20031;-66
2022/12/26 07:16:23;;;;;;;56.60;33.15;;;;;;;3.13;82.37;100597.00;5111466;28;20035;-67
2022/12/26 07:18:52;;;;;;;53.38;31.33;;;;;;;3.37;82.96;100613.34;5114164;28;20110;-67
2022/12/26 07:21:18;;;;;;;55.03;30.42;;;;;;;3.55;81.14;100622.41;5108324;28;20023;-65
2022/12/26 07:23:43;;;;;;;43.92;24.90;;;;;;;3.42;81.96;100616.19;5112613;28;20039;-65
2022/12/26 07:26:09;;;;;;;35.58;23.98;;;;;;;3.38;82.94;100620.56;5111802;28;20413;-64
2022/12/26 07:28:34;;;;;;;24.38;13.88;;;;;;;3.18;83.35;100621.97;5108335;28;20122;-64
2022/12/26 07:31:00;;;;;;;20.33;11.07;;;;;;;2.87;84.83;100632.63;5113321;28;20027;-65
2022/12/26 07:33:28;;;;;;;19.08;11.55;;;;;;;2.90;85.46;100636.81;5108234;28;20050;-74
2022/12/26 07:35:58;;;;;;;21.35;12.02;;;;;;;3.23;85.50;100630.31;5123258;27;20359;-73
2022/12/26 07:38:24;;;;;;;20.90;12.30;;;;;;;3.08;84.82;100627.38;5107783;28;20429;-68
2022/12/26 07:40:49;;;;;;;24.95;13.52;;;;;;;3.47;85.17;100637.53;5109562;28;20035;-69
2022/12/26 07:43:14;;;;;;;15.05;10.25;;;;;;;3.61;83.32;100638.78;5111786;28;20096;-71
2022/12/26 07:45:40;;;;;;;22.33;11.15;;;;;;;3.69;82.79;100626.44;5099027;28;20535;-71
2022/12/26 07:48:06;;;;;;;20.95;9.90;;;;;;;3.78;82.34;100638.69;5103303;27;20110;-69
2022/12/26 07:50:31;;;;;;;19.13;12.18;;;;;;;3.89;82.39;100634.09;5109268;28;20077;-68
2022/12/26 07:52:58;;;;;;;19.80;10.68;;;;;;;3.76;82.19;100645.59;5110732;28;20019;-69
2022/12/26 07:55:24;;;;;;;17.88;11.88;;;;;;;3.76;81.73;100638.13;5091753;28;20056;-65
2022/12/26 07:57:52;;;;;;;22.33;13.75;;;;;;;3.83;83.44;100642.59;5107528;28;20032;-65
2022/12/26 08:00:19;;;;;;;20.98;12.35;;;;;;;3.91;83.38;100642.16;5107934;28;20035;-66
2022/12/26 08:02:48;;;;;;;22.92;13.10;;;;;;;3.94;83.31;100644.38;5111856;28;20023;-68
2022/12/26 08:05:15;;;;;;;24.90;14.18;;;;;;;4.20;82.61;100647.38;5112040;28;20034;-68
2022/12/26 08:07:40;;;;;;;25.45;14.68;;;;;;;4.24;82.63;100651.31;5110893;28;20114;-68
2022/12/26 08:10:06;;;;;;;36.42;19.17;;;;;;;4.43;82.35;100651.75;5111388;28;20035;-69
2022/12/26 08:12:33;;;;;;;30.60;15.82;;;;;;;4.49;81.62;100652.63;5110131;28;20020;-67
2022/12/26 08:14:58;;;;;;;27.73;15.65;;;;;;;4.72;81.82;100650.59;5111810;27;20421;-69
2022/12/26 08:17:24;;;;;;;21.88;14.48;;;;;;;5.11;80.41;100647.47;5111898;28;20028;-70
2022/12/26 08:19:49;;;;;;;28.17;15.23;;;;;;;5.52;79.91;100649.59;5111903;28;20035;-73
2022/12/26 08:22:15;;;;;;;28.02;17.45;;;;;;;5.77;76.98;100648.00;5110817;28;20092;-70
2022/12/26 08:24:40;;;;;;;30.58;18.48;;;;;;;5.43;77.27;100646.53;5110672;28;20164;-69
2022/12/26 08:27:05;;;;;;;33.58;20.10;;;;;;;5.28;78.31;100649.22;5112378;28;20028;-70
2022/12/26 08:29:31;;;;;;;29.80;19.20;;;;;;;5.43;78.15;100631.78;5112590;28;20027;-70
2022/12/26 08:31:59;;;;;;;28.80;17.98;;;;;;;5.70;77.39;100631.63;5113723;28;20023;-72
2022/12/26 08:34:31;;;;;;;26.85;17.65;;;;;;;5.81;76.66;100626.09;5111984;28;20043;-70
2022/12/26 08:36:56;;;;;;;24.92;16.10;;;;;;;5.86;75.86;100623.31;5113340;28;20028;-70
2022/12/26 08:39:22;;;;;;;34.25;18.00;;;;;;;5.83;76.17;100615.53;5113074;28;20039;-70
2022/12/26 08:41:47;;;;;;;32.25;17.10;;;;;;;5.71;77.02;100619.41;5111128;28;20051;-71
2022/12/26 08:44:13;;;;;;;32.55;19.23;;;;;;;5.99;76.89;100613.63;5109768;28;20023;-70
2022/12/26 08:46:38;;;;;;;35.67;17.98;;;;;;;6.09;75.09;100602.53;5110926;28;20031;-70
2022/12/26 08:49:04;;;;;;;27.80;16.17;;;;;;;6.28;75.78;100594.50;5111236;28;20020;-71
2022/12/26 08:51:29;;;;;;;28.52;16.67;;;;;;;6.46;74.35;100590.31;5110937;28;20422;-72
2022/12/26 08:53:55;;;;;;;23.63;15.32;;;;;;;6.92;73.15;100593.25;5111011;28;20035;-71
2022/12/26 08:56:25;;;;;;;32.42;12.82;;;;;;;6.87;72.39;100600.47;5110963;28;20430;-72
2022/12/26 08:58:51;;;;;;;25.65;12.88;;;;;;;6.94;72.11;100593.81;5111331;28;20023;-71
2022/12/26 09:01:19;;;;;;;26.08;19.02;;;;;;;7.00;71.99;100581.56;5112867;28;20024;-72
2022/12/26 09:03:45;;;;;;;27.02;15.07;;;;;;;7.22;71.41;100577.56;5111460;28;20081;-72
2022/12/26 09:06:13;;;;;;;21.40;12.90;;;;;;;7.59;70.02;100581.81;5102317;28;20437;-75
2022/12/26 09:08:40;;;;;;;25.17;14.35;;;;;;;7.61;70.06;100562.88;5111111;28;20023;-75
2022/12/26 09:11:13;;;;;;;22.63;13.55;;;;;;;7.48;70.31;100569.06;5111463;28;20425;-75
2022/12/26 09:13:39;;;;;;;24.52;15.20;;;;;;;7.53;69.67;100563.47;5111434;28;20444;-75
2022/12/26 09:16:11;;;;;;;27.58;15.65;;;;;;;7.53;70.45;100558.72;5111343;28;20028;-75
2022/12/26 09:18:37;;;;;;;20.15;12.15;;;;;;;7.57;69.53;100554.28;5110823;28;20073;-75
2022/12/26 09:21:04;;;;;;;25.58;16.67;;;;;;;7.69;69.64;100551.13;5111764;28;20020;-75
2022/12/26 09:23:30;;;;;;;18.02;12.52;;;;;;;7.61;69.86;100546.19;5110688;28;20047;-75
2022/12/26 09:26:16;;;;;;;25.27;15.70;;;;;;;7.72;70.66;100555.28;5110887;28;20023;-80
2022/12/26 09:28:42;;;;;;;20.30;11.50;;;;;;;7.79;69.11;100552.16;5105736;28;20551;-79
2022/12/26 09:31:11;;;;;;;15.32;10.15;;;;;;;7.85;67.67;100545.44;5094147;28;20023;-77
2022/12/26 09:33:37;;;;;;;31.73;9.45;;;;;;;8.01;68.90;100544.19;5112292;28;20028;-73
2022/12/26 09:36:24;;;;;;;18.63;10.38;;;;;;;8.30;68.83;100550.91;5127824;27;20015;-74
2022/12/26 09:38:50;;;;;;;16.55;10.25;;;;;;;8.27;67.98;100538.38;5112152;28;20165;-74
2022/12/26 09:41:39;;;;;;;12.30;8.02;;;;;;;8.42;66.91;100536.56;5109852;28;20100;-74
2022/12/26 09:44:18;;;;;;;14.05;6.97;;;;;;;8.60;65.70;100531.41;5092351;28;20392;-74
2022/12/26 09:47:37;;;;;;;12.48;7.80;;;;;;;8.93;65.36;100535.19;5111794;28;20035;-74
2022/12/26 09:50:08;;;;;;;18.58;6.82;;;;;;;8.76;63.98;100541.25;5048724;28;20037;-73
2022/12/26 09:52:46;;;;;;;13.88;6.30;;;;;;;8.76;65.05;100540.44;5048683;28;20403;-73
2022/12/26 09:55:28;;;;;;;13.23;6.68;;;;;;;8.87;64.26;100536.41;5076327;28;20039;-73
2022/12/26 09:58:00;;;;;;;10.25;6.28;;;;;;;8.98;63.96;100528.72;5110275;28;20102;-73
2022/12/26 10:00:36;;;;;;;13.68;8.95;;;;;;;9.04;63.59;100519.16;5111843;28;20047;-74
2022/12/26 10:03:01;;;;;;;23.45;9.48;;;;;;;9.17;63.50;100520.38;5112125;28;20520;-72
2022/12/26 10:05:35;;;;;;;16.38;9.45;;;;;;;9.41;62.40;100525.09;5111786;28;20024;-70
2022/12/26 10:08:12;;;;;;;22.10;10.23;;;;;;;9.35;62.18;100517.91;5110871;28;20028;-72
2022/12/26 10:10:47;;;;;;;16.90;8.80;;;;;;;9.23;62.97;100515.56;5110742;28;20042;-72
2022/12/26 10:13:27;;;;;;;394.85;49.17;;;;;;;9.38;62.99;100511.72;5111596;28;20027;-75
2022/12/26 10:16:00;;;;;;;30.95;9.90;;;;;;;9.32;62.41;100510.97;5111713;28;20024;-74
2022/12/26 10:18:58;;;;;;;17.52;8.23;;;;;;;9.62;62.26;100522.00;5110736;28;20107;-73
2022/12/26 10:21:45;;;;;;;18.33;11.35;;;;;;;9.43;60.88;100510.81;5108560;28;20422;-73
2022/12/26 10:24:17;;;;;;;25.55;11.05;;;;;;;9.52;61.58;100500.63;5111754;28;20510;-73
2022/12/26 10:26:48;;;;;;;20.55;10.05;;;;;;;9.89;60.88;100510.09;5111649;28;20428;-72
2022/12/26 10:29:23;;;;;;;19.35;10.48;;;;;;;10.06;59.80;100508.69;5111615;28;20030;-73
2022/12/26 10:31:55;;;;;;;15.13;9.55;;;;;;;10.01;60.14;100498.44;5111288;28;20024;-73
2022/12/26 10:34:34;;;;;;;20.58;10.55;;;;;;;9.93;61.01;100502.75;5109974;28;20121;-69
2022/12/26 10:37:18;;;;;;;18.55;10.70;;;;;;;10.10;60.22;100495.75;5102797;28;20379;-73
2022/12/26 10:40:11;;;;;;;16.73;10.75;;;;;;;10.08;59.47;100492.44;5115700;27;20110;-71
2022/12/26 10:42:42;;;;;;;15.30;9.98;;;;;;;10.15;59.45;100484.50;5115565;28;20379;-74
2022/12/26 10:45:31;;;;;;;18.85;11.18;;;;;;;10.39;58.19;100477.91;5114244;28;20157;-73
2022/12/26 10:47:56;;;;;;;16.30;10.52;;;;;;;10.35;58.21;100476.84;5115059;28;20030;-75
2022/12/26 10:50:24;;;;;;;19.52;10.15;;;;;;;10.26;59.01;100473.94;5115409;28;20490;-74
2022/12/26 10:52:51;;;;;;;19.38;10.55;;;;;;;10.36;59.43;100464.53;5115304;28;20031;-72
2022/12/26 10:55:18;;;;;;;20.55;9.95;;;;;;;10.14;59.11;100454.91;5115232;27;20048;-73
2022/12/26 10:57:49;;;;;;;16.83;10.95;;;;;;;10.07;59.17;100454.47;5105072;28;20378;-69
2022/12/26 11:00:19;;;;;;;17.85;10.00;;;;;;;10.27;58.42;100455.22;5112183;28;20026;-71
2022/12/26 11:03:00;;;;;;;12.20;7.75;;;;;;;10.41;57.67;100450.50;5113070;28;20035;-71
2022/12/26 11:05:26;;;;;;;15.50;8.63;;;;;;;10.27;59.25;100444.03;5123622;27;20477;-69
2022/12/26 11:07:56;;;;;;;16.90;9.27;;;;;;;10.53;57.58;100456.41;5113241;28;20028;-72
2022/12/26 11:10:26;;;;;;;13.25;8.00;;;;;;;10.52;57.68;100434.31;5112166;28;20076;-76
2022/12/26 11:12:55;;;;;;;12.45;7.38;;;;;;;10.65;57.85;100447.47;5111663;28;20031;-73
2022/12/26 11:15:38;;;;;;;13.60;7.82;;;;;;;10.62;57.45;100444.50;5113386;28;20077;-74
2022/12/26 11:18:21;;;;;;;19.45;8.13;;;;;;;10.52;55.88;100442.72;5114021;28;20450;-76
2022/12/26 11:20:47;;;;;;;14.43;8.10;;;;;;;10.39;56.19;100430.38;5111114;28;20080;-75
2022/12/26 11:23:31;;;;;;;12.38;7.10;;;;;;;10.57;56.55;100439.00;5113721;28;20489;-76
2022/12/26 11:25:59;;;;;;;11.60;7.38;;;;;;;10.56;57.94;100431.75;5113692;28;20016;-76
2022/12/26 11:28:36;;;;;;;13.07;7.05;;;;;;;10.51;57.23;100429.88;5114146;27;20489;-76
2022/12/26 11:31:05;;;;;;;11.90;7.25;;;;;;;10.50;56.80;100426.25;5113297;28;20032;-77
2022/12/26 11:33:45;;;;;;;15.70;7.90;;;;;;;10.54;57.35;100429.25;5112250;28;20096;-76
2022/12/26 11:36:25;;;;;;;14.20;7.57;;;;;;;10.44;57.68;100429.44;5112316;28;20023;-76
2022/12/26 11:39:05;;;;;;;;;;;;;;;10.55;57.45;100435.69;5112486;28;20030;-72
2022/12/26 11:41:39;;;;;;;8.75;6.90;;;;;;;10.50;56.84;100434.66;5112800;28;20389;-73
2022/12/26 11:44:21;;;;;;;12.75;5.88;;;;;;;10.64;56.21;100422.63;5111144;27;20108;-74
2022/12/26 11:46:51;;;;;;;10.45;6.10;;;;;;;10.57;55.94;100423.03;5111236;28;20381;-71
2022/12/26 11:49:39;;;;;;;9.18;6.18;;;;;;;10.63;55.95;100418.97;5106833;28;20493;-74
2022/12/26 11:52:36;;;;;;;15.15;6.75;;;;;;;10.81;56.95;100417.19;5114507;28;20027;-74
2022/12/26 11:55:21;;;;;;;12.98;6.95;;;;;;;10.75;56.79;100410.06;5112932;28;20039;-74
2022/12/26 11:58:09;;;;;;;10.63;7.30;;;;;;;10.73;56.35;100419.91;5129935;27;20080;-74
2022/12/26 12:00:43;;;;;;;11.77;6.35;;;;;;;10.85;55.93;100417.41;5114385;28;20027;-74
2022/12/26 12:03:29;;;;;;;20.35;9.80;;;;;;;10.86;55.63;100407.03;5114518;27;20141;-74
2022/12/26 12:06:13;;;;;;;22.52;12.20;;;;;;;10.98;56.17;100403.69;5113137;28;20030;-74
2022/12/26 12:08:42;;;;;;;45.33;33.80;;;;;;;10.90;55.09;100408.06;5114397;28;20035;-74
2022/12/26 12:11:26;;;;;;;21.33;13.18;;;;;;;10.87;54.99;100403.09;5112950;28;20063;-74
2022/12/26 12:14:35;;;;;;;20.50;11.27;;;;;;;11.07;54.82;100405.41;5114151;28;20028;-74
2022/12/26 12:17:21;;;;;;;18.92;9.85;;;;;;;10.91;54.72;100406.91;5109473;28;20028;-74
2022/12/26 12:20:05;;;;;;;13.80;7.80;;;;;;;11.04;54.53;100392.06;5092296;28;20028;-75
2022/12/26 12:22:40;;;;;;;16.33;7.22;;;;;;;10.93;54.95;100402.69;5109469;28;20452;-74
2022/12/26 12:25:21;;;;;;;13.88;6.70;;;;;;;10.85;55.67;100405.38;5109451;28;20061;-74
2022/12/26 12:28:08;;;;;;;15.10;8.20;;;;;;;10.90;55.74;100406.09;5093470;28;20024;-74
2022/12/26 12:30:57;;;;;;;15.68;9.02;;;;;;;10.93;56.32;100397.06;5109226;28;20118;-74
2022/12/26 12:33:28;;;;;;;15.55;7.95;;;;;;;11.01;55.37;100403.06;5110777;28;20454;-74
2022/12/26 12:36:04;;;;;;;15.45;8.45;;;;;;;11.06;55.94;100400.16;5113991;28;20038;-74
2022/12/26 12:38:54;;;;;;;12.10;7.10;;;;;;;11.06;54.94;100400.97;5112318;28;20027;-74
2022/12/26 12:42:01;;;;;;;16.38;8.13;;;;;;;11.03;54.59;100393.22;5128792;27;20405;-74
2022/12/26 12:44:44;;;;;;;9.10;6.22;;;;;;;10.98;54.96;100400.88;5094893;28;20038;-74
2022/12/26 12:47:44;;;;;;;11.00;6.32;;;;;;;10.95;55.33;100399.53;5113543;28;20371;-74
2022/12/26 12:50:37;;;;;;;11.40;6.45;;;;;;;10.84;54.64;100386.91;5112042;28;20023;-74
2022/12/26 12:53:31;;;;;;;25.15;9.32;;;;;;;11.11;55.16;100391.63;5113432;28;20058;-74
2022/12/26 12:56:28;;;;;;;13.00;7.70;;;;;;;11.15;55.44;100394.63;5111929;28;20078;-75
2022/12/26 12:59:23;;;;;;;10.63;6.35;;;;;;;11.09;55.17;100393.91;5112031;28;20084;-75
2022/12/26 13:01:54;;;;;;;11.30;6.55;;;;;;;11.09;54.94;100397.53;5111882;28;20023;-75
2022/12/26 13:04:31;;;;;;;13.60;7.32;;;;;;;11.07;55.21;100391.41;5112022;28;20023;-75
2022/12/26 13:07:12;;;;;;;10.80;7.57;;;;;;;11.20;54.85;100395.34;5113328;28;20036;-74
2022/12/26 13:09:42;;;;;;;12.65;7.55;;;;;;;11.15;55.37;100400.22;5112020;28;20508;-70
2022/12/26 13:12:17;;;;;;;17.13;7.57;;;;;;;11.17;55.09;100389.53;5112229;28;20405;-72
2022/12/26 13:14:56;;;;;;;8.88;6.65;;;;;;;11.21;54.62;100393.34;5112002;28;20076;-76
2022/12/26 13:17:44;;;;;;;15.52;6.70;;;;;;;11.24;54.29;100389.94;5113511;28;20442;-76
2022/12/26 13:20:20;;;;;;;9.25;6.50;;;;;;;11.08;54.07;100386.66;5111524;28;20168;-75
2022/12/26 13:25:43;;;;;;;9.93;6.70;;;;;;;11.03;54.88;100382.00;5113105;28;20516;-75
2022/12/26 13:28:18;;;;;;;10.63;7.13;;;;;;;11.06;55.17;100381.38;5111522;28;20088;-72
2022/12/26 13:30:44;;;;;;;20.52;9.93;;;;;;;11.09;55.03;100374.31;5098784;28;20020;-77
2022/12/26 13:33:13;;;;;;;13.73;9.25;;;;;;;11.11;54.52;100385.22;5124661;27;20145;-73
2022/12/26 13:35:57;;;;;;;11.15;7.18;;;;;;;11.09;54.23;100377.94;5128775;27;20543;-73
2022/12/26 13:38:24;;;;;;;15.02;8.60;;;;;;;11.09;54.74;100368.72;5128638;27;20409;-73
2022/12/26 13:43:53;;;;;;;14.15;7.78;;;;;;;11.06;54.83;100369.34;5111227;28;20039;-72
2022/12/26 13:44:31;;;;;;;18.98;9.60;;;;;;;11.01;55.56;100375.06;5112911;28;20035;-73
2022/12/26 13:46:58;;;;;;;15.93;9.60;;;;;;;11.03;54.54;100381.16;5078323;28;20070;-73
2022/12/26 13:49:35;;;;;;;12.43;7.88;;;;;;;10.94;55.24;100384.75;5111158;28;20027;-75
2022/12/26 13:52:09;;;;;;;10.50;6.75;;;;;;;10.94;54.88;100386.69;5128601;27;20035;-76
2022/12/26 13:54:47;;;;;;;11.82;7.78;;;;;;;10.98;54.94;100387.75;5127663;27;20047;-75